LZSL METAR and TAF | Updated Today

LZSL METAR

Sliač Airport

Sliač Airport (LZSL) hasn't published a METAR.
We found the following current weather conditions for Tri Duby from other sources.

Sliač Airport (LZSL) METAR

  • Weather conditions right now at LZSL:
  • Present conditions: Clouds
  • Clouds: Broken clouds
  • Cloud cover: 53%
  • Wind: 27 at 3kts
  • Temperature: 11.7 celsius
  • Feels like: 11.3 celsius
  • Pressure: 1031mb
  • Humidity: 91%


Useful to know...

LZSL TAF

Sliač Airport

TAF LZSL 061630Z 0618/0706 VRB02KT CAVOK TEMPO 0622/0624 5000 BR NSC TEMPO 0700/0706 0200 FG BKN001
Observation time: 4:14 hr. ago
Need help? Read our tutorial on how to read TAFs or read the parsed version below.

Parsed version of TAF for Sliač Airport (LZSL)

  • From 06 October at 18:00 UTC, to day 07 of the month at 06:00 UTC
  • Visibility: Greater than 10 km
  • Wind: Variable at 2
  • Expected to arise temporarily, from 06 October at 22:00 UTC, to day 06 of the month at 24:00 UTC
  • Clouds: No significant clouds are observed
  • Visibility: 5000 meters
  • Other: Mist
  • Expected to arise temporarily, from 07 October at 00:00 UTC, to day 07 of the month at 06:00 UTC
  • Clouds: Broken sky at 30 meters
  • Visibility: 200 meters
  • Other: Fog

Airports near LZSL

LZLU Weather
Region: Lučenec

Lučenec Airport

Not found in our database
LZZI Weather
IATA: ILZ
Region: Žilina

Žilina Airport

Found in our database